Monday, October 15, 2018, 4:59 AM EDT
Back to Local

KGTB, Fort Drum / Wheeler-sack U. S. Army Airfield

Location: Fort Drum, NY, United States Lat: 44.05
Local Time: 4:59 AM EDT ( 8:59 GMT) Lon: -75.733
Time Zone: US/Eastern Elev: 679 ft

Show me the last for .
Show Decoded

2018-10-15 03:56 METAR KGTB 150756Z 14011KT 10SM CLR 05/05 A3004 RMK AO2A SLPNO ALSTG ESMTD
                 T00540054 TSNO $ =
2018-10-15 02:56 METAR KGTB 150656Z 14009KT 10SM CLR 05/05 A3006 RMK AO2A SLPNO ALSTG ESTMD
                 T00540054 TSNO $ =
2018-10-15 01:56 METAR KGTB 150556Z 14009KT 10SM CLR 06/06 A3009 RMK AO2A SLPNO ALSTG ESTMD
                 T00550055 10096 20055 TSNO $ =
2018-10-15 00:56 METAR KGTB 150456Z 15008KT 10SM CLR 06/06 A3010 RMK AO2A SLPNO ALSTG ESTMD
                 T00610061 401390008 TSNO $ =
2018-10-14 23:56 METAR KGTB 150356Z COR AUTO 14008KT 10SM CLR 07/07 A3011 RMK AO2 SLPNO T00650065
                 TSNO $ COR 0408 =
2018-10-14 22:56 METAR KGTB 150256Z 14008KT 10SM CLR 07/07 A3012 RMK AO2A SLPNO T00720072 TSNO $
                 =
2018-10-14 21:56 METAR KGTB 150156Z 14005KT 10SM CLR 07/07 A3013 RMK AO2A SLPNO T00740074 TSNO $
                 =
2018-10-14 20:56 METAR KGTB 150056Z COR AUTO 16008KT 10SM CLR 08/08 A3013 RMK AO2 SLPNO T00840075
                 TSNO $ COR 0110 =
2018-10-14 19:56 METAR KGTB 142356Z 17006KT 10SM CLR 08/08 A3013 RMK AO2A SLPNO T00820079 10139
                 20070 TSNO $ =
2018-10-14 18:56 METAR KGTB 142256Z 00000KT 10SM CLR 08/07 A3013 RMK AO2A SLPNO T00840070 TSNO $
                 =
2018-10-14 17:56 METAR KGTB 142156Z 21004KT 10SM FEW035 11/06 A3013 RMK AO2A SLPNO T01140057 TSNO
                 $ =
2018-10-14 16:56 METAR KGTB 142056Z COR AUTO 23008KT 10SM SCT055 13/05 A3014 RMK AO2 SLPNO
                 T01280050 TSNO $ COR 2058 =
2018-10-14 15:56 METAR KGTB 141956Z COR AUTO 24005KT 10SM BKN050 13/04 A3014 RMK AO2 SLPNO
                 T01310037 TSNO $ COR 2035 =
2018-10-14 14:56 METAR KGTB 141856Z AUTO 25007KT 10SM SCT110 13/03 A3013 RMK AO2 SLP207 T01290033
                 TSNO $ =
2018-10-14 13:56 METAR KGTB 141756Z AUTO 21007G15KT 10SM CLR 13/01 A3013 RMK AO2 SLP207 T01280012
                 10131 20019 58011 TSNO $ =
2018-10-14 12:56 METAR KGTB 141656Z AUTO 24007KT 10SM CLR 12/01 A3015 RMK AO2 SLP213 T01230007
                 TSNO $ =
2018-10-14 11:56 METAR KGTB 141556Z AUTO 24009KT 10SM CLR 12/01 A3017 RMK AO2 SLP221 T01160010
                 TSNO $ =
2018-10-14 10:56 METAR KGTB 141456Z AUTO 19005KT 10SM FEW210 09/02 A3017 RMK AO2 SLP221 T00920018
                 52009 TSNO $ =
2018-10-14 09:56 METAR KGTB 141356Z AUTO 14005KT 10SM CLR 07/03 A3016 RMK AO2 SLP218 T00710028
                 TSNO $ =
2018-10-14 08:56 METAR KGTB 141256Z AUTO 16006KT 10SM CLR 04/04 A3015 RMK AO2 SLP215 T00410041
                 TSNO $ =
2018-10-14 07:56 METAR KGTB 141156Z AUTO 00000KT 10SM SCT200 02/02 A3014 RMK AO2 SLP212 T00200020
                 10043 20008 52010 TSNO $ =
2018-10-14 06:56 METAR KGTB 141056Z AUTO 00000KT 10SM OVC190 02/02 A3013 RMK AO2 SLP209 T00220022
                 TSNO $ =
2018-10-14 05:56 METAR KGTB 140956Z AUTO 18003KT 10SM CLR 01/01 A3012 RMK AO2 SLP205 T00100010
                 TSNO $ =

Support USWX by starting your Amazon purchase here.